Tiempo atmosférico en la estación meteorológica de Villacarriedo, Cantabria (194 m.)



Fecha
DESCASC
Temp. máxima en grados centígrados (hora)
DESCASC
Temp. mínima en grados centígrados (hora)
DESCASC
Temp. media en grados centígrados
DESCASC
Racha de viento máxima en m/sg (hora)
DESCASC
Velocidad máxima media en intervalos de 10 minutos(hora)
DESCASC
Precipitaciones diarias en mm
DESCASC
Precipitaciones de 00:00 a 06:00 en mm
DESCASC
Precipitaciones de 06:00 a 12:00 en mm
DESCASC
Precipitaciones de 12:00 a 18:00 en mm
DESCASC
Precipitaciones de 18:00 a 24:00 en mm
DESCASC
26-03-2020 11 (12:40) 2.9 (03:30) 7 10.83 (12:40) 6.11 (14:00) 0 0 0 0 0
25-03-2020 16.1 (11:50) 2.9 (07:10) 9.5 8.61 (12:30) 5.56 (12:30) 0 0 0 0 0
24-03-2020 19.4 (14:30) 4.4 (08:00) 11.9 8.89 (15:30) 5.28 (16:10) 0 0 0 0 0
23-03-2020 15.6 (15:30) 9 (23:59) 12.3 7.22 (16:10) 5 (16:00) 0 0 0 0 0
22-03-2020 15.6 (15:40) 10.1 (06:50) 12.9 6.11 (17:10) 3.61 (17:10) 0 0 0 0 0
21-03-2020 20.7 (15:30) 11.2 (00:00) 16 10 (09:30) 6.39 (09:30) 0 0 0 0 0
20-03-2020 18.1 (17:10) 8.6 (00:00) 13.4 11.67 (12:30) 7.5 (12:30) 0 0 0 0 0
19-03-2020 18 (12:40) 9.6 (00:00) 13.8 6.39 (14:00) 5 (13:50) 0 0 0 0 0
18-03-2020 16 (15:00) 6.2 (00:00) 11.1 5.56 (14:00) 3.89 (13:10) 0 0 0 0 0
17-03-2020 13.3 (16:30) 7.1 (00:00) 10.2 5.28 (00:20) 3.06 (00:20) 0.6 0.4 0.2 0 0
16-03-2020 9.9 (14:20) 5.2 (00:00) 7.5 11.11 (12:10) 5.83 (16:00) 32.4 5.4 12.6 7.2 7.2
15-03-2020 14.2 (11:50) 2.3 (00:00) 8.2 10 (18:30) 6.11 (18:30) 4.6 0 0 0 4.6
14-03-2020 14.9 (14:00) 2.4 (00:00) 8.6 6.94 (17:10) 4.44 (17:20) 0 0 0 0 0
13-03-2020 13.4 (14:10) 3.9 (23:59) 8.6 6.39 (15:30) 4.17 (13:10) 0 0 0 0 0
12-03-2020 13.3 (11:50) 9.4 (00:00) 11.3 5.83 (17:30) 3.33 (13:10) 1.8 0 0 0.4 1.4
11-03-2020 18.4 (14:00) 2.5 (00:00) 10.4 5.83 (15:50) 3.89 (15:50) 0 0 0 0 0
10-03-2020 15.1 (17:40) 3.2 (00:00) 9.2 6.11 (15:20) 4.17 (15:20) 0 0 0 0 0
09-03-2020 12.6 (14:40) 7.1 (00:00) 9.9 10 (12:20) 5.28 (12:40) 1.2 1.2 0 0 0
08-03-2020 17.9 (15:10) 1 (00:00) 9.4 9.72 (23:20) 5.28 (15:40) 0.6 0 0 0 0.6
07-03-2020 13.8 (15:10) 3.3 (00:00) 8.6 7.5 (14:50) 4.17 (14:30) 4.8 1.6 3 0 0.2
06-03-2020 9.4 (13:20) 4.3 (00:00) 6.8 19.17 (16:00) 10.83 (16:00) 43.6 2.4 13.2 14.8 13.2
05-03-2020 17.5 (02:10) 5.8 (00:00) 11.7 19.44 (04:20) 10.83 (02:10) 16 0 14.2 1.6 0.2
04-03-2020 18.1 (15:00) 9.6 (00:00) 13.9 6.67 (16:00) 4.17 (16:20) 5.4 5.2 0 0 0.2
03-03-2020 18.2 (11:40) 4 (00:00) 11.1 25.28 (14:50) 12.5 (14:30) 4.2 1.4 0.6 0 2.2
02-03-2020 16 (01:50) 4.3 (00:00) 10.2 20 (05:40) 10.56 (07:20) 23.4 11 5.6 4.4 2.4
01-03-2020 17.2 (11:10) 7.6 (00:00) 12.4 19.17 (07:30) 8.89 (08:20) 0 0 0 0 0
29-02-2020 17.7 (00:00) 8.4 (00:00) 13.1 18.06 (05:10) 10.28 (03:30) 0 0 0 0 0
28-02-2020 19.8 (14:30) 4.5 (00:00) 12.1 12.78 (17:10) 6.94 (16:50) 0 0 0 0 0

Gráficas

Temp. máximas Temp. mínimas Temp. medias Precipitaciones Rachas de viento máximas Velocidades máximas media en intervalos de 10 minutos

Datos horarios

Fecha y hora oficial Temperatura (ºC) Velocidad del viento (km/h) Dirección del viento Racha (km/h) Dirección de racha Precipitación (mm) Presión (hPa) Tendencia (hPa) Humedad (%)
2020-03-28 23:00:00 5.7 0 Calma 5 Noroeste 0 -- -- 88
2020-03-28 22:00:00 7.1 3 Nordeste 5 Nordeste 0 -- -- 85
2020-03-28 21:00:00 8.1 2 Sudoeste 5 Sudoeste 0 -- -- 80
2020-03-28 20:00:00 11 8 Noroeste 15 Noroeste 0 -- -- 69
2020-03-28 19:00:00 12.5 8 Norte 21 Norte 0 -- -- 63
2020-03-28 18:00:00 13.9 15 Norte 26 Norte 0 -- -- 57
2020-03-28 17:00:00 14.6 18 Norte 30 Norte 0 -- -- 59
2020-03-28 16:00:00 15.5 15 Norte 26 Norte 0 -- -- 60
2020-03-28 15:00:00 15.5 15 Norte 23 Norte 0 -- -- 61
2020-03-28 14:00:00 15.4 15 Norte 23 Norte 0 -- -- 58
2020-03-28 13:00:00 14.8 13 Norte 20 Nordeste 0 -- -- 55
2020-03-28 12:00:00 14.3 8 Norte 13 Nordeste 0 -- -- 56
2020-03-28 11:00:00 11.9 3 Este 6 Nordeste 0 -- -- 66
2020-03-28 10:00:00 7.7 0 Calma 5 Este 0 -- -- 89
2020-03-28 09:00:00 3.4 2 Sudeste 4 Sur 0 -- -- 99
2020-03-28 08:00:00 0.5 0 Calma 3 Sudoeste 0 -- -- 99
2020-03-28 07:00:00 0.2 0 Calma 2 Noroeste 0 -- -- 97
2020-03-28 06:00:00 0.6 0 Calma 2 Sudoeste 0 -- -- 97
2020-03-28 05:00:00 1.2 0 Calma 3 Este 0 -- -- 98
2020-03-28 04:00:00 1.4 0 Calma 2 Noroeste 0 -- -- 96
2020-03-28 03:00:00 1.8 0 Calma 3 Oeste 0 -- -- 95
2020-03-28 02:00:00 2.3 0 Calma 3 Norte 0 -- -- 95
2020-03-28 01:00:00 2.9 2 Sur 5 Sudoeste 0 -- -- 93
2020-03-28 00:00:00 3.3 3 Sur 5 Nordeste 0 -- -- 91
2020-03-27 23:00:00 4.5 0 Calma 4 Noroeste 0 -- -- 90
2020-03-27 22:00:00 5.5 2 Sudoeste 5 Noroeste 0 -- -- 85
2020-03-27 21:00:00 6.9 4 Oeste 6 Noroeste 0 -- -- 81
2020-03-27 20:00:00 9.2 4 Noroeste 12 Oeste 0 -- -- 72
2020-03-27 19:00:00 10.7 8 Noroeste 18 Norte 0 -- -- 66
2020-03-27 18:00:00 12.3 11 Norte 19 Noroeste 0 -- -- 58
2020-03-27 17:00:00 12.9 13 Norte 28 Norte 0 -- -- 56
2020-03-27 16:00:00 13.2 17 Norte 29 Nordeste 0 -- -- 57
2020-03-27 15:00:00 13.6 18 Norte 32 Norte 0 -- -- 56
2020-03-27 14:00:00 13.6 16 Norte 29 Norte 0 -- -- 56
2020-03-27 13:00:00 12.6 14 Norte 24 Norte 0 -- -- 54
2020-03-27 12:00:00 11.4 10 Norte 16 Norte 0 -- -- 55
2020-03-27 11:00:00 9.7 3 Nordeste 9 Norte 0 -- -- 57
2020-03-27 10:00:00 6 3 Nordeste 6 Este 0 -- -- 83
2020-03-27 09:00:00 2.2 3 Nordeste 4 Sudeste 0 -- -- 94
2020-03-27 08:00:00 -0.4 2 Noroeste 4 Norte 0 -- -- 96
2020-03-27 07:00:00 -0.7 3 Oeste 5 Noroeste 0 -- -- 96
2020-03-27 06:00:00 -0.3 2 Norte 4 Norte 0 -- -- 95
2020-03-27 05:00:00 0.3 0 Calma 5 Noroeste 0 -- -- 94
2020-03-27 04:00:00 0.8 3 Sudoeste 6 Noroeste 0 -- -- 91
2020-03-27 03:00:00 1.9 3 Sudoeste 6 Sudoeste 0 -- -- 90
2020-03-27 02:00:00 2.5 2 Sur 5 Norte 0 -- -- 88
2020-03-27 01:00:00 3.4 2 Sur 6 Noroeste 0 -- -- 86
2020-03-27 00:00:00 4.2 0 Calma 4 Noroeste 0 -- -- 82
2020-03-26 23:00:00 5.2 3 Este 5 Nordeste 0 -- -- 77
2020-03-26 22:00:00 6.6 0 Calma 7 Norte 0 -- -- 69
2020-03-26 21:00:00 7.4 4 Norte 21 Norte 0 -- -- 63
2020-03-26 20:00:00 7.8 9 Norte 18 Norte 0 -- -- 59
2020-03-26 19:00:00 8.4 10 Norte 31 Norte 0 -- -- 61
2020-03-26 18:00:00 8.9 18 Norte 30 Norte 0 -- -- 61
2020-03-26 17:00:00 9.5 18 Norte 31 Noroeste 0 -- -- 63
2020-03-26 16:00:00 9.7 20 Noroeste 36 Noroeste 0 -- -- 74
2020-03-26 15:00:00 10.3 13 Norte 37 Noroeste 0 -- -- 67
2020-03-26 14:00:00 10.3 22 Noroeste 37 Oeste 0 -- -- 68
2020-03-26 13:00:00 10.3 21 Noroeste 39 Noroeste 0 -- -- 67
2020-03-26 12:00:00 10.5 18 Noroeste 37 Noroeste 0 -- -- 72
2020-03-26 11:00:00 10 17 Noroeste 31 Noroeste 0 -- -- 71
2020-03-26 10:00:00 8.7 15 Noroeste 29 Norte 0 -- -- 77
2020-03-26 09:00:00 8 14 Noroeste 26 Noroeste 0 -- -- 79
2020-03-26 08:00:00 5.4 3 Sudoeste 9 Noroeste 0 -- -- 96
2020-03-26 07:00:00 4.9 4 Sur 7 Sudeste 0 -- -- 96
2020-03-26 06:00:00 4.5 2 Nordeste 8 Oeste 0 -- -- 96
2020-03-26 05:00:00 3.8 0 Calma 7 Nordeste 0 -- -- 97
2020-03-26 04:00:00 3.2 4 Sudoeste 13 Nordeste 0 -- -- 98
2020-03-26 03:00:00 3.3 3 Noroeste 9 Noroeste 0 -- -- 94
2020-03-26 02:00:00 4.4 2 Este 6 Oeste 0 -- -- 92
2020-03-26 01:00:00 5.1 4 Nordeste 6 Oeste 0 -- -- 91
2020-03-26 00:00:00 5.6 3 Sudoeste 7 Norte 0 -- -- 91
2020-03-25 23:00:00 6.7 3 Norte 8 Sudoeste 0 -- -- 85
2020-03-25 22:00:00 8 4 Oeste 9 Norte 0 -- -- 80
2020-03-25 21:00:00 8.2 6 Norte 12 Norte 0 -- -- 80
2020-03-25 20:00:00 9.1 7 Norte 14 Noroeste 0 -- -- 79
2020-03-25 19:00:00 11.2 9 Noroeste 22 Norte 0 -- -- 74
2020-03-25 18:00:00 12.2 15 Norte 27 Norte 0 -- -- 71
2020-03-25 17:00:00 14.3 16 Norte 28 Norte 0 -- -- 66
2020-03-25 16:00:00 15.2 14 Norte 24 Norte 0 -- -- 60
2020-03-25 15:00:00 15.6 10 Norte 21 Norte 0 -- -- 64
2020-03-25 14:00:00 14.9 13 Norte 23 Norte 0 -- -- 72
2020-03-25 13:00:00 14.3 15 Nordeste 31 Norte 0 -- -- 75
2020-03-25 12:00:00 15.9 12 Norte 21 Norte 0 -- -- 62
2020-03-25 11:00:00 13.9 3 Norte 5 Este 0 -- -- 71
2020-03-25 10:00:00 9.6 2 Nordeste 4 Norte 0 -- -- 87
2020-03-25 09:00:00 6.3 0 Calma 3 Este 0 -- -- 100
2020-03-25 08:00:00 3.4 0 Calma 3 Este 0 -- -- 99
2020-03-25 07:00:00 3 2 Este 4 Sudeste 0 -- -- 98
2020-03-25 06:00:00 3.6 0 Calma 4 Noroeste 0 -- -- 98
2020-03-25 05:00:00 4.2 0 Calma 3 Oeste 0 -- -- 97
2020-03-25 04:00:00 4.9 0 Calma 3 Nordeste 0 -- -- 97
2020-03-25 03:00:00 5.1 0 Calma 3 Norte 0 -- -- 95
2020-03-25 02:00:00 6 0 Calma 3 Sudoeste 0 -- -- 94
2020-03-25 01:00:00 6.3 0 Calma 4 Sudoeste 0 -- -- 92
2020-03-25 00:00:00 7.3 0 Calma 5 Nordeste 0 -- -- 91
2020-03-24 23:00:00 8.5 0 Calma 5 Norte 0 -- -- 85
2020-03-24 22:00:00 10.1 2 Sudoeste 5 Sudoeste 0 -- -- 82
2020-03-24 21:00:00 11.9 3 Sur 8 Noroeste 0 -- -- 77
2020-03-24 20:00:00 14.6 6 Noroeste 14 Nordeste 0 -- -- 65
2020-03-24 19:00:00 15.9 7 Norte 17 Nordeste 0 -- -- 64
2020-03-24 18:00:00 17.5 9 Norte 23 Norte 0 -- -- 60
2020-03-24 17:00:00 17.9 14 Norte 28 Norte 0 -- -- 62
2020-03-24 16:00:00 18.6 16 Norte 32 Nordeste 0 -- -- 61
2020-03-24 15:00:00 19 14 Nordeste 29 Norte 0 -- -- 56
2020-03-24 14:00:00 18.7 14 Norte 23 Norte 0 -- -- 58
2020-03-24 13:00:00 18.1 4 Nordeste 20 Norte 0 -- -- 58
2020-03-24 12:00:00 16.6 12 Norte 20 Norte 0 -- -- 63
2020-03-24 11:00:00 15.8 5 Norte 10 Norte 0 -- -- 66
2020-03-24 10:00:00 11.3 2 Oeste 6 Norte 0 -- -- 94
2020-03-24 09:00:00 7.3 2 Este 6 Este 0 -- -- 100
2020-03-24 08:00:00 4.4 0 Calma 5 Noroeste 0 -- -- 100
2020-03-24 07:00:00 4.9 2 Noroeste 5 Sur 0 -- -- 100
2020-03-24 06:00:00 5.4 0 Calma 4 Noroeste 0 -- -- 99
2020-03-24 05:00:00 6 2 Sudeste 5 Este 0 -- -- 99
2020-03-24 04:00:00 6.6 0 Calma 6 Sudoeste 0 -- -- 99
2020-03-24 03:00:00 6.6 3 Sudoeste 6 Nordeste 0 -- -- 97
2020-03-24 02:00:00 7.5 3 Oeste 7 Sudoeste 0 -- -- 96
2020-03-24 01:00:00 8.3 0 Calma 6 Noroeste 0 -- -- 95
2020-03-24 00:00:00 9 3 Sudoeste 4 Sudoeste 0 -- -- 93
2020-03-23 23:00:00 10.2 2 Sudoeste 4 Noroeste 0 -- -- 92
2020-03-23 22:00:00 11 4 Noroeste 9 Oeste 0 -- -- 90
2020-03-23 21:00:00 11.2 5 Noroeste 13 Oeste 0 -- -- 89
2020-03-23 20:00:00 12 6 Noroeste 10 Noroeste 0 -- -- 84
2020-03-23 19:00:00 13 6 Norte 22 Norte 0 -- -- 81
2020-03-23 18:00:00 13.9 9 Norte 21 Norte 0 -- -- 78
2020-03-23 17:00:00 14.9 13 Norte 26 Norte 0 -- -- 74
2020-03-23 16:00:00 15.3 18 Norte 24 Norte 0 -- -- 72
2020-03-23 15:00:00 15 12 Norte 22 Norte 0 -- -- 71
2020-03-23 14:00:00 15.3 13 Norte 23 Norte 0 -- -- 72
2020-03-23 13:00:00 14.3 10 Norte 22 Norte 0 -- -- 80
2020-03-23 12:00:00 14.3 9 Norte 13 Norte 0 -- -- 77
2020-03-23 11:00:00 13 4 Norte 8 Nordeste 0 -- -- 80
2020-03-23 10:00:00 11.5 2 Norte 4 Sudeste 0 -- -- 90
2020-03-23 09:00:00 10.6 0 Calma 5 Norte 0 -- -- 96
2020-03-23 08:00:00 10.3 0 Calma 3 Oeste 0 -- -- 96
2020-03-23 07:00:00 10.2 2 Noroeste 5 Este 0 -- -- 96
2020-03-23 06:00:00 10.3 0 Calma 5 Nordeste 0 -- -- 95
2020-03-23 05:00:00 10.4 2 Noroeste 6 Noroeste 0 -- -- 95
2020-03-23 04:00:00 10.4 3 Este 6 Nordeste 0 -- -- 95
2020-03-23 03:00:00 10.6 0 Calma 7 Nordeste 0 -- -- 94
2020-03-23 02:00:00 10.8 4 Nordeste 8 Norte 0 -- -- 94
2020-03-23 01:00:00 11 3 Nordeste 7 Nordeste 0 -- -- 93
2020-03-23 00:00:00 11.1 4 Nordeste 9 Norte 0 -- -- 92
2020-03-22 23:00:00 11.1 3 Norte 5 Norte 0 -- -- 92
2020-03-22 22:00:00 11.4 2 Sudoeste 5 Oeste 0 -- -- 90
2020-03-22 21:00:00 11.6 3 Nordeste 4 Norte 0 -- -- 88
2020-03-22 20:00:00 11.8 0 Calma 13 Noroeste 0 -- -- 86
2020-03-22 19:00:00 12.5 7 Noroeste 14 Norte 0 -- -- 84
2020-03-22 18:00:00 13.4 7 Norte 22 Noroeste 0 -- -- 80
2020-03-22 17:00:00 14.5 11 Norte 17 Norte 0 -- -- 78
2020-03-22 16:00:00 15.2 10 Noroeste 17 Noroeste 0 -- -- 74
2020-03-22 15:00:00 14.6 7 Noroeste 16 Noroeste 0 -- -- 73
2020-03-22 14:00:00 15 6 Este 15 Nordeste 0 -- -- 73
2020-03-22 13:00:00 13.8 2 Sur 6 Noroeste 0 -- -- 79
2020-03-22 12:00:00 12.5 2 Oeste 6 Oeste 0 -- -- 84
2020-03-22 11:00:00 11.3 2 Norte 6 Noroeste 0 -- -- 89
2020-03-22 10:00:00 10.7 3 Norte 8 Sudeste 0 -- -- 92
2020-03-22 09:00:00 10.3 4 Este 6 Este 0 -- -- 93
2020-03-22 08:00:00 10.3 3 Oeste 9 Oeste 0 -- -- 90
2020-03-22 07:00:00 10.1 6 Oeste 17 Oeste 0 -- -- 92
2020-03-22 06:00:00 10.4 6 Noroeste 10 Oeste 0 -- -- 93
2020-03-22 05:00:00 10.5 0 Calma 6 Noroeste 0 -- -- 95
2020-03-22 04:00:00 10.5 3 Noroeste 5 Norte 0 -- -- 94
2020-03-22 03:00:00 10.4 3 Norte 6 Noroeste 0 -- -- 95
2020-03-22 02:00:00 10.7 5 Noroeste 10 Noroeste 0 -- -- 94
2020-03-22 01:00:00 10.9 7 Noroeste 10 Oeste 0 -- -- 93
2020-03-22 00:00:00 11.2 4 Norte 7 Norte 0 -- -- 94
2020-03-21 23:00:00 11.3 5 Nordeste 8 Nordeste 0 -- -- 93
2020-03-21 22:00:00 11.7 4 Norte 10 Noroeste 0 -- -- 90
2020-03-21 21:00:00 11.9 6 Noroeste 14 Noroeste 0 -- -- 89
2020-03-21 20:00:00 12 6 Noroeste 12 Noroeste 0 -- -- 89
2020-03-21 19:00:00 12.8 8 Noroeste 26 Oeste 0 -- -- 86
2020-03-21 18:00:00 15.6 13 Noroeste 22 Oeste 0 -- -- 77
2020-03-21 17:00:00 17.7 10 Nordeste 20 Nordeste 0 -- -- 68
2020-03-21 16:00:00 19.9 5 Norte 14 Sudeste 0 -- -- 58
2020-03-21 15:00:00 20.1 12 Sur 18 Sudeste 0 -- -- 49
2020-03-21 14:00:00 19.6 8 Sudeste 14 Sudeste 0 -- -- 50
2020-03-21 13:00:00 18.9 9 Sur 18 Sudoeste 0 -- -- 55
2020-03-21 12:00:00 18 6 Sudoeste 21 Oeste 0 -- -- 58
2020-03-21 11:00:00 16.2 12 Sudoeste 27 Sudeste 0 -- -- 59
2020-03-21 10:00:00 14.1 15 Sudoeste 36 Sudoeste 0 -- -- 67
2020-03-21 09:00:00 13.3 16 Sudoeste 32 Sudoeste 0 -- -- 67
2020-03-21 08:00:00 11.8 9 Sur 30 Sudoeste 0 -- -- 73
2020-03-21 07:00:00 12.4 12 Sur 33 Sur 0 -- -- 69
2020-03-21 06:00:00 12.3 9 Sur 23 Sur 0 -- -- 70
2020-03-21 05:00:00 13.1 9 Sudoeste 26 Sudoeste 0 -- -- 67
2020-03-21 04:00:00 13.3 5 Sur 21 Sudeste 0 -- -- 67
2020-03-21 03:00:00 14.4 11 Este 24 Este 0 -- -- 64
2020-03-21 02:00:00 14.7 9 Sudeste 28 Este 0 -- -- 63
2020-03-21 01:00:00 14.7 7 Este 23 Nordeste 0 -- -- 64
2020-03-21 00:00:00 15 10 Sur 37 Sur 0 -- -- 63
2020-03-20 23:00:00 15.1 15 Sudeste 31 Sudoeste 0 -- -- 63
2020-03-20 22:00:00 14.7 5 Este 10 Sudeste 0 -- -- 63
2020-03-20 21:00:00 14.8 8 Sudeste 15 Sudeste 0 -- -- 63
2020-03-20 20:00:00 15.2 9 Sudeste 18 Sudeste 0 -- -- 64
2020-03-20 19:00:00 16.8 5 Sur 23 Sudeste 0 -- -- 59
2020-03-20 18:00:00 17.7 12 Sur 22 Sudeste 0 -- -- 57
2020-03-20 17:00:00 18 13 Sudeste 25 Sudeste 0 -- -- 58
2020-03-20 16:00:00 18 11 Sudeste 32 Sur 0 -- -- 58
2020-03-20 15:00:00 17.1 16 Sur 27 Sudeste 0 -- -- 55
2020-03-20 14:00:00 16.6 14 Sur 35 Sur 0 -- -- 52
2020-03-20 13:00:00 16.8 19 Sudeste 42 Sur 0 -- -- 49
2020-03-20 12:00:00 16.4 12 Sur 32 Sur 0 -- -- 57
2020-03-20 11:00:00 16.1 10 Sudeste 28 Sudeste 0 -- -- 52
2020-03-20 10:00:00 15.5 10 Sudoeste 20 Sur 0 -- -- 57
2020-03-20 09:00:00 13.5 15 Oeste 32 Sudoeste 0 -- -- 57
2020-03-20 08:00:00 12.3 10 Sur 25 Oeste 0 -- -- 64
2020-03-20 07:00:00 12.6 5 Sur 27 Sudeste 0 -- -- 63
2020-03-20 06:00:00 12.1 9 Sudoeste 22 Sudoeste 0 -- -- 69
2020-03-20 05:00:00 11.6 10 Sudoeste 20 Sudoeste 0 -- -- 74
2020-03-20 04:00:00 9 8 Norte 13 Nordeste 0 -- -- 99
2020-03-20 03:00:00 9.6 9 Noroeste 17 Norte 0 -- -- 100
2020-03-20 02:00:00 9.2 5 Norte 12 Norte 0 -- -- 100
2020-03-20 01:00:00 10.2 4 Noroeste 10 Noroeste 0 -- -- 100
2020-03-20 00:00:00 10.8 2 Noroeste 6 Noroeste 0 -- -- 100
2020-03-19 23:00:00 11.1 4 Norte 8 Norte 0 -- -- 100
2020-03-19 22:00:00 11.4 5 Norte 8 Norte 0 -- -- 99
2020-03-19 21:00:00 11.8 2 Noroeste 6 Norte 0 -- -- 99
2020-03-19 20:00:00 11.8 5 Norte 9 Norte 0 -- -- 97
2020-03-19 19:00:00 12.3 6 Norte 15 Norte 0 -- -- 95
2020-03-19 18:00:00 13.6 10 Norte 17 Norte 0 -- -- 92
2020-03-19 17:00:00 15.1 10 Norte 19 Norte 0 -- -- 87
2020-03-19 16:00:00 16.7 11 Norte 21 Norte 0 -- -- 82
2020-03-19 15:00:00 17 12 Norte 23 Norte 0 -- -- 80
2020-03-19 14:00:00 16 18 Norte 23 Norte 0 -- -- 83
2020-03-19 13:00:00 17.7 11 Noroeste 16 Norte 0 -- -- 72
2020-03-19 12:00:00 17 9 Norte 14 Noroeste 0 -- -- 69
2020-03-19 11:00:00 16.7 5 Norte 17 Noroeste 0 -- -- 66
2020-03-19 10:00:00 12.2 8 Noroeste 13 Noroeste 0 -- -- 100
2020-03-19 09:00:00 9.8 3 Noroeste 7 Norte 0 -- -- 100
2020-03-19 08:00:00 9.6 3 Nordeste 6 Norte 0 -- -- 100
2020-03-19 07:00:00 9.8 4 Noroeste 7 Noroeste 0 -- -- 100
2020-03-19 06:00:00 9.8 3 Sur 5 Oeste 0 -- -- 100
2020-03-19 05:00:00 10 2 Norte 8 Nordeste 0 -- -- 100
2020-03-19 04:00:00 10.2 0 Calma 5 Nordeste 0 -- -- 100
2020-03-19 03:00:00 10.4 2 Nordeste 7 Nordeste 0 -- -- 100
2020-03-19 02:00:00 10.7 0 Calma 4 Sur 0 -- -- 100
2020-03-19 01:00:00 11 0 Calma 5 Norte 0 -- -- 99
2020-03-19 00:00:00 11.2 0 Calma 3 Sudeste 0 -- -- 99
2020-03-18 23:00:00 11.3 0 Calma 3 Oeste 0 -- -- 98
2020-03-18 22:00:00 11.2 0 Calma 8 Norte 0 -- -- 98
2020-03-18 21:00:00 11 6 Norte 10 Norte 0 -- -- 97
2020-03-18 20:00:00 11.8 4 Noroeste 10 Norte 0 -- -- 95
2020-03-18 19:00:00 13.3 6 Norte 9 Nordeste 0 -- -- 91
2020-03-18 18:00:00 15 5 Norte 10 Norte 0 -- -- 86
2020-03-18 17:00:00 15.7 6 Nordeste 13 Nordeste 0 -- -- 85
2020-03-18 16:00:00 16 8 Nordeste 14 Norte 0 -- -- 83
2020-03-18 15:00:00 16 8 Nordeste 16 Norte 0 -- -- 81
2020-03-18 14:00:00 15 12 Norte 20 Norte 0 -- -- 83
2020-03-18 13:00:00 14.7 10 Norte 14 Norte 0 -- -- 84
2020-03-18 12:00:00 13.9 9 Norte 14 Norte 0 -- -- 87
2020-03-18 11:00:00 12.3 8 Norte 14 Norte 0 -- -- 90
2020-03-18 10:00:00 10 6 Norte 9 Nordeste 0 -- -- 94
2020-03-18 09:00:00 7.6 5 Noroeste 11 Noroeste 0 -- -- 100
2020-03-18 08:00:00 6.5 3 Norte 5 Noroeste 0 -- -- 99
2020-03-18 07:00:00 6.8 0 Calma 5 Sudeste 0 -- -- 98
2020-03-18 06:00:00 7.4 4 Nordeste 6 Este 0 -- -- 97
2020-03-18 05:00:00 8.1 4 Noroeste 9 Norte 0 -- -- 97
2020-03-18 04:00:00 9 3 Noroeste 10 Noroeste 0 -- -- 92
2020-03-18 03:00:00 9.2 7 Noroeste 10 Noroeste 0 -- -- 95
2020-03-18 02:00:00 7.8 5 Noroeste 13 Sudoeste 0 -- -- 100
2020-03-18 01:00:00 6.5 5 Norte 10 Noroeste 0 -- -- 99
2020-03-18 00:00:00 7.1 0 Calma 6 Sudoeste 0 -- -- 99
2020-03-17 23:00:00 7.7 4 Noroeste 9 Noroeste 0 -- -- 98
2020-03-17 22:00:00 8.3 3 Sur 8 Norte 0 -- -- 97
2020-03-17 21:00:00 9.3 4 Norte 9 Norte 0 -- -- 96
2020-03-17 20:00:00 10.8 3 Sur 9 Norte 0 -- -- 91
2020-03-17 19:00:00 12.1 4 Norte 7 Norte 0 -- -- 88
2020-03-17 18:00:00 13.1 3 Sudeste 6 Sudeste 0 -- -- 82
2020-03-17 17:00:00 13 3 Norte 9 Este 0 -- -- 82
2020-03-17 16:00:00 13 2 Sur 6 Este 0 -- -- 82
2020-03-17 15:00:00 12.4 2 Este 6 Nordeste 0 -- -- 85
2020-03-17 14:00:00 11.5 0 Calma 8 Nordeste 0 -- -- 87
2020-03-17 13:00:00 11 5 Nordeste 7 Este 0 -- -- 90
2020-03-17 12:00:00 10.9 3 Este 10 Sudeste 0 -- -- 90
2020-03-17 11:00:00 10.5 3 Este 6 Este 0 -- -- 95
2020-03-17 10:00:00 9 2 Nordeste 5 Este 0 -- -- 99
2020-03-17 09:00:00 8.3 3 Noroeste 5 Noroeste 0 -- -- 99
2020-03-17 08:00:00 8.1 0 Calma 3 Este 0.2 -- -- 99
2020-03-17 07:00:00 8 2 Sudeste 3 Sudeste 0 -- -- 99
2020-03-17 06:00:00 8 3 Sudeste 7 Oeste 0.2 -- -- 98
2020-03-17 05:00:00 8 2 Sudeste 6 Norte 0 -- -- 97
2020-03-17 04:00:00 8.1 3 Nordeste 13 Oeste 0 -- -- 95
2020-03-17 03:00:00 8.2 4 Noroeste 8 Noroeste 0.2 -- -- 96
2020-03-17 02:00:00 8.3 5 Noroeste 8 Noroeste 0 -- -- 94
2020-03-17 01:00:00 8.9 3 Noroeste 19 Norte 0 -- -- 89
2020-03-17 00:00:00 9.1 12 Norte 21 Noroeste 0 -- -- 88
2020-03-16 23:00:00 9 10 Norte 26 Norte 0 -- -- 90
2020-03-16 22:00:00 9 14 Norte 29 Noroeste 0 -- -- 89
2020-03-16 21:00:00 8.4 12 Norte 22 Norte 2.2 -- -- 97
2020-03-16 20:00:00 8.8 11 Norte 28 Norte 2.2 -- -- 92
2020-03-16 19:00:00 8.2 7 Noroeste 33 Norte 2.8 -- -- 95
2020-03-16 18:00:00 8.3 11 Norte 24 Noroeste 2.6 -- -- 95
2020-03-16 17:00:00 8.4 14 Norte 27 Norte 1.6 -- -- 94
2020-03-16 16:00:00 8.3 21 Norte 35 Norte 1.8 -- -- 92
2020-03-16 15:00:00 9.7 15 Norte 33 Noroeste 0 -- -- 80
2020-03-16 14:00:00 9.7 15 Norte 32 Noroeste 0 -- -- 83
2020-03-16 13:00:00 9 12 Noroeste 40 Norte 1.2 -- -- 86
2020-03-16 12:00:00 8 14 Noroeste 27 Noroeste 0.8 -- -- 89
2020-03-16 11:00:00 7.5 11 Nordeste 32 Noroeste 2.8 -- -- 93
2020-03-16 10:00:00 6.9 11 Noroeste 26 Noroeste 0.6 -- -- 93
2020-03-16 09:00:00 6.6 14 Noroeste 29 Noroeste 3.2 -- -- 94
2020-03-16 08:00:00 5.6 9 Norte 18 Norte 2.8 -- -- 97
2020-03-16 07:00:00 5.3 2 Sur 10 Este 2.4 -- -- 97
2020-03-16 06:00:00 5.2 4 Sur 9 Sudeste 2 -- -- 96
2020-03-16 05:00:00 5.2 5 Sudeste 9 Sudeste 1.4 -- -- 95
2020-03-16 04:00:00 5.5 3 Nordeste 14 Noroeste 0 -- -- 92
2020-03-16 03:00:00 5.6 5 Noroeste 14 Noroeste 0.2 -- -- 94
2020-03-16 02:00:00 5.6 2 Sur 6 Noroeste 1.6 -- -- 94
2020-03-16 01:00:00 5.8 5 Oeste 14 Oeste 0.2 -- -- 90
2020-03-16 00:00:00 6 4 Nordeste 9 Noroeste 0.8 -- -- 94
2020-03-15 23:00:00 6.3 2 Norte 13 Noroeste 0.4 -- -- 93
2020-03-15 22:00:00 6.6 9 Noroeste 27 Noroeste 0.2 -- -- 91
2020-03-15 21:00:00 7.1 9 Noroeste 27 Noroeste 1.2 -- -- 92
2020-03-15 20:00:00 7.8 8 Oeste 32 Noroeste 1 -- -- 90
2020-03-15 19:00:00 8.8 15 Noroeste 36 Noroeste 1 -- -- 92
2020-03-15 18:00:00 11.8 6 Norte 10 Noroeste 0 -- -- 78
2020-03-15 17:00:00 12 4 Sudeste 12 Sudeste 0 -- -- 76
2020-03-15 16:00:00 11.8 4 Sur 17 Noroeste 0 -- -- 78
2020-03-15 15:00:00 11.8 8 Noroeste 17 Norte 0 -- -- 76
2020-03-15 14:00:00 11.8 8 Norte 21 Norte 0 -- -- 80
2020-03-15 13:00:00 12 13 Norte 19 Nordeste 0 -- -- 81
2020-03-15 12:00:00 13.9 10 Nordeste 17 Oeste 0 -- -- 75
2020-03-15 11:00:00 13.8 6 Oeste 17 Este 0 -- -- 71
2020-03-15 10:00:00 12.4 9 Nordeste 16 Nordeste 0 -- -- 77
2020-03-15 09:00:00 10.2 8 Norte 15 Noroeste 0 -- -- 72
2020-03-15 08:00:00 10.6 5 Norte 15 Sudeste 0 -- -- 59
2020-03-15 07:00:00 10.4 5 Sur 24 Este 0 -- -- 57
2020-03-15 06:00:00 4.7 4 Noroeste 18 Sudoeste 0 -- -- 94
2020-03-15 05:00:00 2.6 2 Sudoeste 9 Sudoeste 0 -- -- 100
2020-03-15 04:00:00 2.7 2 Noroeste 8 Este 0 -- -- 99
2020-03-15 03:00:00 3.3 2 Sur 8 Oeste 0 -- -- 99
2020-03-15 02:00:00 4 0 Calma 4 Este 0 -- -- 97
2020-03-15 01:00:00 5 2 Nordeste 4 Nordeste 0 -- -- 97
2020-03-15 00:00:00 5.6 0 Calma 3 Oeste 0 -- -- 95
2020-03-14 23:00:00 6.3 0 Calma 3 Sudoeste 0 -- -- 93
2020-03-14 22:00:00 6.9 0 Calma 3 Norte 0 -- -- 91
2020-03-14 21:00:00 8.2 0 Calma 4 Sudoeste 0 -- -- 88
2020-03-14 20:00:00 9.9 3 Noroeste 9 Noroeste 0 -- -- 81
2020-03-14 19:00:00 11.6 4 Noroeste 18 Norte 0 -- -- 78
2020-03-14 18:00:00 12.7 12 Norte 25 Norte 0 -- -- 75
2020-03-14 17:00:00 13.6 14 Norte 22 Norte 0 -- -- 73
2020-03-14 16:00:00 14.2 15 Norte 24 Norte 0 -- -- 74
2020-03-14 15:00:00 14.6 10 Norte 16 Nordeste 0 -- -- 68
2020-03-14 14:00:00 14.9 3 Oeste 11 Nordeste 0 -- -- 58
2020-03-14 13:00:00 14 3 Sudeste 13 Noroeste 0 -- -- 60
2020-03-14 12:00:00 13.2 7 Norte 14 Este 0 -- -- 65
2020-03-14 11:00:00 12.2 2 Sudoeste 8 Este 0 -- -- 70
2020-03-14 10:00:00 7.7 0 Calma 4 Sur 0 -- -- 96
2020-03-14 09:00:00 5.4 0 Calma 3 Noroeste 0 -- -- 99
2020-03-14 08:00:00 4.9 2 Sur 4 Sudoeste 0 -- -- 99
2020-03-14 07:00:00 4.5 0 Calma 4 Sudeste 0 -- -- 99
2020-03-14 06:00:00 4.1 0 Calma 4 Noroeste 0 -- -- 99
2020-03-14 05:00:00 3.7 0 Calma 4 Nordeste 0 -- -- 99
2020-03-14 04:00:00 3.2 0 Calma 4 Noroeste 0 -- -- 99
2020-03-14 03:00:00 2.4 0 Calma 4 Oeste 0 -- -- 97
2020-03-14 02:00:00 2.9 3 Noroeste 5 Noroeste 0 -- -- 97
2020-03-14 01:00:00 3.3 3 Noroeste 5 Noroeste 0 -- -- 96
2020-03-14 00:00:00 3.9 3 Oeste 8 Noroeste 0 -- -- 95
2020-03-13 23:00:00 4.6 0 Calma 3 Sudeste 0 -- -- 92
2020-03-13 22:00:00 5.7 0 Calma 7 Norte 0 -- -- 91
2020-03-13 21:00:00 6.6 0 Calma 4 Sudoeste 0 -- -- 85
2020-03-13 20:00:00 8.3 3 Este 10 Oeste 0 -- -- 81
2020-03-13 19:00:00 10.4 4 Noroeste 15 Nordeste 0 -- -- 72
2020-03-13 18:00:00 11.8 11 Norte 21 Norte 0 -- -- 69
2020-03-13 17:00:00 12.5 13 Norte 22 Norte 0 -- -- 66
2020-03-13 16:00:00 12.8 13 Norte 23 Norte 0 -- -- 65
2020-03-13 15:00:00 12.2 12 Nordeste 22 Nordeste 0 -- -- 72
2020-03-13 14:00:00 13.2 12 Nordeste 23 Nordeste 0 -- -- 74
2020-03-13 13:00:00 11.6 14 Norte 20 Norte 0 -- -- 78
2020-03-13 12:00:00 11.6 10 Norte 14 Norte 0 -- -- 81
2020-03-13 11:00:00 11.2 10 Norte 17 Norte 0 -- -- 79
2020-03-13 10:00:00 10.1 6 Norte 12 Norte 0 -- -- 87
2020-03-13 09:00:00 9.3 6 Norte 13 Norte 0 -- -- 90
2020-03-13 08:00:00 8.7 5 Norte 10 Norte 0 -- -- 91
2020-03-13 07:00:00 8.5 4 Norte 12 Norte 0 -- -- 96
2020-03-13 06:00:00 8.6 6 Noroeste 15 Norte 0 -- -- 95
2020-03-13 05:00:00 8.5 5 Norte 21 Norte 0 -- -- 97
2020-03-13 04:00:00 8.6 10 Norte 21 Norte 0 -- -- 98
2020-03-13 03:00:00 8.9 13 Norte 22 Norte 0 -- -- 98
2020-03-13 02:00:00 9.3 5 Norte 10 Norte 0 -- -- 96
2020-03-13 01:00:00 9.4 4 Noroeste 11 Noroeste 0 -- -- 96
2020-03-13 00:00:00 9.4 4 Noroeste 11 Norte 0 -- -- 96
2020-03-12 23:00:00 9.4 6 Noroeste 10 Noroeste 0.2 -- -- 99
2020-03-12 22:00:00 9.4 6 Norte 8 Norte 0.2 -- -- 99
2020-03-12 21:00:00 9.5 0 Calma 5 Nordeste 0.4 -- -- 99
2020-03-12 20:00:00 9.5 4 Nordeste 7 Noroeste 0.6 -- -- 99
2020-03-12 19:00:00 9.7 5 Norte 13 Norte 0 -- -- 98
2020-03-12 18:00:00 10.2 8 Norte 21 Noroeste 0.2 -- -- 96
2020-03-12 17:00:00 11.1 12 Norte 21 Norte 0.2 -- -- 96
2020-03-12 16:00:00 12.1 6 Norte 14 Nordeste 0 -- -- 94
2020-03-12 15:00:00 12.6 8 Nordeste 14 Norte 0 -- -- 90
2020-03-12 14:00:00 12.9 6 Norte 17 Norte 0 -- -- 86
2020-03-12 13:00:00 13.1 10 Norte 18 Nordeste 0 -- -- 89
2020-03-12 12:00:00 13.2 9 Nordeste 15 Nordeste 0 -- -- 88
2020-03-12 11:00:00 12.5 4 Norte 8 Este 0 -- -- 91
2020-03-12 10:00:00 11.5 3 Este 7 Este 0 -- -- 98
2020-03-12 09:00:00 10.7 0 Calma 3 Sur 0 -- -- 99
2020-03-12 08:00:00 10.4 3 Noroeste 5 Noroeste 0 -- -- 99
2020-03-12 07:00:00 10.5 0 Calma 2 Sudeste 0 -- -- 98
2020-03-12 06:00:00 10.5 2 Noroeste 4 Noroeste 0 -- -- 98
2020-03-12 05:00:00 10.5 2 Noroeste 3 Noroeste 0 -- -- 98
2020-03-12 04:00:00 10.5 0 Calma 3 Sudeste 0 -- -- 97
2020-03-12 03:00:00 10.6 0 Calma 4 Sudoeste 0 -- -- 97
2020-03-12 02:00:00 10.5 0 Calma 4 Nordeste 0 -- -- 97
2020-03-12 01:00:00 10.4 3 Nordeste 9 Norte 0 -- -- 97
2020-03-12 00:00:00 10.6 7 Norte 15 Noroeste 0 -- -- 95
2020-03-11 23:00:00 10.3 0 Calma 2 Oeste 0 -- -- 92
2020-03-11 22:00:00 10.9 2 Este 7 Norte 0 -- -- 90
2020-03-11 21:00:00 11.4 6 Norte 8 Norte 0 -- -- 89
2020-03-11 20:00:00 12.6 5 Norte 6 Norte 0 -- -- 85
2020-03-11 19:00:00 14.4 5 Norte 13 Nordeste 0 -- -- 78
2020-03-11 18:00:00 16.1 9 Norte 20 Norte 0 -- -- 74
2020-03-11 17:00:00 17.4 10 Nordeste 18 Norte 0 -- -- 72
2020-03-11 16:00:00 17.9 14 Nordeste 21 Nordeste 0 -- -- 70
2020-03-11 15:00:00 18.4 11 Nordeste 20 Norte 0 -- -- 72
2020-03-11 14:00:00 18.4 9 Nordeste 15 Norte 0 -- -- 67
2020-03-11 13:00:00 17.5 7 Nordeste 12 Nordeste 0 -- -- 65
2020-03-11 12:00:00 16.1 4 Nordeste 8 Nordeste 0 -- -- 77
2020-03-11 11:00:00 12.4 2 Sur 5 Nordeste 0 -- -- 89
2020-03-11 10:00:00 7.9 0 Calma 4 Norte 0 -- -- 100
2020-03-11 09:00:00 4.5 0 Calma 5 Noroeste 0 -- -- 100
2020-03-11 08:00:00 2.5 0 Calma 4 Noroeste 0 -- -- 100
2020-03-11 07:00:00 2.8 0 Calma 4 Nordeste 0 -- -- 99
2020-03-11 06:00:00 3.3 0 Calma 5 Sudeste 0 -- -- 100
2020-03-11 05:00:00 3.9 0 Calma 3 Sudoeste 0 -- -- 99
2020-03-11 04:00:00 4.5 0 Calma 3 Sudoeste 0 -- -- 99
2020-03-11 03:00:00 4.5 0 Calma 5 Noroeste 0 -- -- 98
2020-03-11 02:00:00 5.3 3 Sudoeste 6 Sur 0 -- -- 98
2020-03-11 01:00:00 6.3 3 Oeste 8 Noroeste 0 -- -- 98
2020-03-11 00:00:00 6.7 3 Sudoeste 4 Sudoeste 0 -- -- 96
2020-03-10 23:00:00 7.4 0 Calma 5 Noroeste 0 -- -- 95
2020-03-10 22:00:00 8.2 0 Calma 4 Sudoeste 0 -- -- 92
2020-03-10 21:00:00 9.6 3 Oeste 5 Noroeste 0 -- -- 88
2020-03-10 20:00:00 10.8 4 Sudoeste 8 Sudoeste 0 -- -- 86
2020-03-10 19:00:00 12.4 5 Norte 9 Norte 0 -- -- 83
2020-03-10 18:00:00 14.6 3 Norte 8 Norte 0 -- -- 77
2020-03-10 17:00:00 14.5 5 Nordeste 17 Norte 0 -- -- 76
2020-03-10 16:00:00 14 10 Norte 22 Norte 0 -- -- 78
2020-03-10 15:00:00 14.4 13 Norte 21 Norte 0 -- -- 77
2020-03-10 14:00:00 15 6 Nordeste 18 Nordeste 0 -- -- 75
2020-03-10 13:00:00 14.1 11 Norte 17 Norte 0 -- -- 79
2020-03-10 12:00:00 13 2 Norte 7 Nordeste 0 -- -- 75
2020-03-10 11:00:00 10.4 5 Este 10 Este 0 -- -- 86
2020-03-10 10:00:00 6.6 3 Sur 4 Sur 0 -- -- 99
2020-03-10 09:00:00 4.2 3 Noroeste 4 Oeste 0 -- -- 100
2020-03-10 08:00:00 3.4 0 Calma 5 Noroeste 0 -- -- 99
2020-03-10 07:00:00 3.7 0 Calma 3 Norte 0 -- -- 99
2020-03-10 06:00:00 3.9 0 Calma 4 Norte 0 -- -- 98
2020-03-10 05:00:00 4.3 2 Nordeste 5 Sudeste 0 -- -- 96
2020-03-10 04:00:00 4.8 2 Sudoeste 4 Sudoeste 0 -- -- 96
2020-03-10 03:00:00 5.5 0 Calma 7 Noroeste 0 -- -- 95
2020-03-10 02:00:00 6 4 Sudeste 6 Sudeste 0 -- -- 94
2020-03-10 01:00:00 6.6 3 Sudeste 6 Noroeste 0 -- -- 94
2020-03-10 00:00:00 7.1 0 Calma 4 Norte 0 -- -- 93
2020-03-09 23:00:00 7.5 0 Calma 6 Noroeste 0 -- -- 91
2020-03-09 22:00:00 7.7 0 Calma 5 Sudeste 0 -- -- 90
2020-03-09 21:00:00 8.4 0 Calma 4 Sudoeste 0 -- -- 88
2020-03-09 20:00:00 9.8 0 Calma 10 Noroeste 0 -- -- 81
2020-03-09 19:00:00 10.9 4 Norte 17 Norte 0 -- -- 76
2020-03-09 18:00:00 11.9 8 Norte 20 Noroeste 0 -- -- 68
2020-03-09 17:00:00 12.2 14 Noroeste 29 Noroeste 0 -- -- 68
2020-03-09 16:00:00 12.3 15 Noroeste 28 Noroeste 0 -- -- 65
2020-03-09 15:00:00 12.5 12 Noroeste 29 Noroeste 0 -- -- 69
2020-03-09 14:00:00 12.1 15 Noroeste 29 Noroeste 0 -- -- 67
2020-03-09 13:00:00 12.4 12 Noroeste 36 Noroeste 0 -- -- 65
2020-03-09 12:00:00 11.8 18 Noroeste 31 Noroeste 0 -- -- 64
2020-03-09 11:00:00 11.1 11 Noroeste 17 Noroeste 0 -- -- 71
2020-03-09 10:00:00 10.3 7 Noroeste 14 Noroeste 0 -- -- 78
2020-03-09 09:00:00 9.8 5 Noroeste 17 Noroeste 0 -- -- 77
2020-03-09 08:00:00 9.3 0 Calma 16 Oeste 0 -- -- 82
2020-03-09 07:00:00 9.6 13 Noroeste 24 Noroeste 0 -- -- 80
2020-03-09 06:00:00 9.4 6 Norte 24 Noroeste 0 -- -- 82
2020-03-09 05:00:00 9.6 15 Noroeste 34 Noroeste 0 -- -- 79
2020-03-09 04:00:00 9.6 8 Noroeste 29 Noroeste 0 -- -- 83
2020-03-09 03:00:00 9.5 9 Norte 27 Noroeste 0 -- -- 85
2020-03-09 02:00:00 9.7 9 Noroeste 33 Oeste 0.4 -- -- 84
2020-03-09 01:00:00 9.4 12 Noroeste 27 Norte 0.8 -- -- 85
2020-03-09 00:00:00 9.5 6 Noroeste 35 Noroeste 0.6 -- -- 87
2020-03-08 23:00:00 10.7 3 Sudoeste 17 Noroeste 0 -- -- 80
2020-03-08 22:00:00 11.3 9 Noroeste 24 Noroeste 0 -- -- 77
2020-03-08 21:00:00 11.4 10 Noroeste 30 Oeste 0 -- -- 78
2020-03-08 20:00:00 11.7 17 Noroeste 32 Noroeste 0 -- -- 78
2020-03-08 19:00:00 11.7 12 Noroeste 26 Noroeste 0 -- -- 81
2020-03-08 18:00:00 12.1 17 Noroeste 35 Noroeste 0 -- -- 79
2020-03-08 17:00:00 12.9 12 Noroeste 28 Noroeste 0 -- -- 77
2020-03-08 16:00:00 15.6 18 Norte 30 Norte 0 -- -- 68
2020-03-08 15:00:00 17.7 2 Este 14 Este 0 -- -- 52
2020-03-08 14:00:00 16.8 7 Nordeste 20 Norte 0 -- -- 57
2020-03-08 13:00:00 14.6 2 Noroeste 9 Noroeste 0 -- -- 58
2020-03-08 12:00:00 11.9 3 Norte 9 Noroeste 0 -- -- 82
2020-03-08 11:00:00 8.4 3 Este 6 Noroeste 0 -- -- 96
2020-03-08 10:00:00 5.6 2 Norte 5 Norte 0 -- -- 100
2020-03-08 09:00:00 3.8 3 Sudoeste 10 Noroeste 0 -- -- 100
2020-03-08 08:00:00 2.5 2 Este 9 Noroeste 0 -- -- 99
2020-03-08 07:00:00 2 3 Oeste 5 Oeste 0 -- -- 100
2020-03-08 06:00:00 2 3 Noroeste 5 Noroeste 0 -- -- 100
2020-03-08 05:00:00 1 3 Sudoeste 9 Noroeste 0 -- -- 98
2020-03-08 04:00:00 1.3 4 Sur 12 Oeste 0 -- -- 99
2020-03-08 03:00:00 1.6 8 Noroeste 19 Noroeste 0 -- -- 97
2020-03-08 02:00:00 2 5 Noroeste 10 Noroeste 0 -- -- 97
2020-03-08 01:00:00 2.8 0 Calma 6 Norte 0 -- -- 97
2020-03-08 00:00:00 3.5 3 Sudoeste 8 Norte 0 -- -- 96
2020-03-07 23:00:00 4.6 0 Calma 4 Sudoeste 0 -- -- 91
2020-03-07 22:00:00 5.4 3 Sudoeste 5 Noroeste 0.2 -- -- 89
2020-03-07 21:00:00 7.1 0 Calma 4 Este 0 -- -- 84
2020-03-07 20:00:00 9.1 0 Calma 8 Sudoeste 0 -- -- 76
2020-03-07 19:00:00 11.1 2 Nordeste 10 Norte 0 -- -- 66
2020-03-07 18:00:00 12 7 Norte 12 Norte 0 -- -- 60
2020-03-07 17:00:00 12.7 4 Norte 17 Noroeste 0 -- -- 60
2020-03-07 16:00:00 13.5 12 Noroeste 25 Norte 0 -- -- 59
2020-03-07 15:00:00 13.5 15 Noroeste 27 Noroeste 0 -- -- 56
2020-03-07 14:00:00 13.3 14 Noroeste 26 Noroeste 0 -- -- 64
2020-03-07 13:00:00 11.4 6 Sudeste 11 Sudeste 0 -- -- 79
2020-03-07 12:00:00 10.4 4 Sudeste 13 Noroeste 0 -- -- 90
2020-03-07 11:00:00 9.2 7 Noroeste 20 Oeste 1 -- -- 95
2020-03-07 10:00:00 9 9 Noroeste 21 Noroeste 0.4 -- -- 95
2020-03-07 09:00:00 8.7 6 Oeste 17 Noroeste 1.2 -- -- 96
2020-03-07 08:00:00 8.7 7 Noroeste 13 Noroeste 0.4 -- -- 94
2020-03-07 07:00:00 8.7 6 Oeste 25 Noroeste 0 -- -- 92
2020-03-07 06:00:00 8.9 12 Noroeste 23 Noroeste 0.2 -- -- 92
2020-03-07 05:00:00 8.5 4 Noroeste 16 Noroeste 0.4 -- -- 95
2020-03-07 04:00:00 8.2 6 Noroeste 16 Noroeste 0 -- -- 94
2020-03-07 03:00:00 7.3 6 Noroeste 14 Oeste 0.2 -- -- 95
2020-03-07 02:00:00 7.2 7 Noroeste 14 Noroeste 0.6 -- -- 92
2020-03-07 01:00:00 7.2 6 Noroeste 26 Noroeste 0.2 -- -- 92
2020-03-07 00:00:00 7.7 10 Noroeste 21 Noroeste 0 -- -- 87
2020-03-06 23:00:00 7.1 10 Noroeste 22 Noroeste 0 -- -- 90
2020-03-06 22:00:00 6.8 10 Noroeste 40 Noroeste 2.4 -- -- 94
2020-03-06 21:00:00 7 9 Noroeste 27 Noroeste 2.6 -- -- 94
2020-03-06 20:00:00 6.6 12 Noroeste 35 Oeste 3.2 -- -- 94
2020-03-06 19:00:00 6.2 23 Noroeste 48 Noroeste 5 -- -- 91
2020-03-06 18:00:00 6.5 12 Noroeste 54 Noroeste 2 -- -- 95
2020-03-06 17:00:00 5.4 12 Norte 59 Norte 11.2 -- -- 95
2020-03-06 16:00:00 6.1 39 Norte 69 Norte 0.6 -- -- 87
2020-03-06 15:00:00 8.6 21 Noroeste 67 Noroeste 0.6 -- -- 81
2020-03-06 14:00:00 8.5 26 Noroeste 54 Oeste 0 -- -- 75
2020-03-06 13:00:00 8.8 25 Noroeste 59 Noroeste 0.4 -- -- 70
2020-03-06 12:00:00 8.2 21 Noroeste 49 Noroeste 1 -- -- 76
2020-03-06 11:00:00 6.5 24 Noroeste 52 Noroeste 1 -- -- 86
2020-03-06 10:00:00 5.6 15 Noroeste 51 Noroeste 4 -- -- 86
2020-03-06 09:00:00 6.1 15 Norte 42 Norte 1.8 -- -- 90
2020-03-06 08:00:00 5.6 22 Oeste 44 Oeste 4 -- -- 85
2020-03-06 07:00:00 6.3 18 Noroeste 47 Oeste 1.4 -- -- 85
2020-03-06 06:00:00 6.9 27 Oeste 60 Oeste 1.6 -- -- 79
2020-03-06 05:00:00 7.2 23 Noroeste 50 Oeste 0.8 -- -- 82
2020-03-06 04:00:00 8.6 9 Noroeste 50 Oeste 0 -- -- 70
2020-03-06 03:00:00 7.7 5 Norte 18 Noroeste 0 -- -- 78
2020-03-06 02:00:00 7.4 9 Oeste 26 Oeste 0 -- -- 80
2020-03-06 01:00:00 5.5 5 Norte 9 Noroeste 0 -- -- 90
2020-03-06 00:00:00 5.8 2 Este 8 Sur 0 -- -- 87
2020-03-05 23:00:00 7.1 0 Calma 9 Noroeste 0 -- -- 85
2020-03-05 22:00:00 8.3 3 Noroeste 17 Sudeste 0 -- -- 82
2020-03-05 21:00:00 8.8 7 Noroeste 22 Noroeste 0.2 -- -- 79
2020-03-05 20:00:00 9.4 9 Noroeste 37 Oeste 0 -- -- 76
2020-03-05 19:00:00 9.8 12 Oeste 42 Noroeste 0 -- -- 76
2020-03-05 18:00:00 9.9 5 Noroeste 36 Noroeste 0.6 -- -- 82
2020-03-05 17:00:00 9.8 21 Noroeste 56 Noroeste 0.8 -- -- 82
2020-03-05 16:00:00 10.4 22 Noroeste 51 Noroeste 0.2 -- -- 81
2020-03-05 15:00:00 10.9 37 Noroeste 63 Noroeste 0 -- -- 75
2020-03-05 14:00:00 11.2 29 Noroeste 63 Noroeste 0 -- -- 73
2020-03-05 13:00:00 13.3 22 Noroeste 39 Noroeste 0 -- -- 69
2020-03-05 12:00:00 14 5 Este 13 Este 0 -- -- 74
2020-03-05 11:00:00 11.4 9 Sudeste 17 Sudeste 0.2 -- -- 91
2020-03-05 10:00:00 10.4 5 Sudeste 10 Sudeste 3.2 -- -- 96
2020-03-05 09:00:00 10.2 4 Este 30 Noroeste 6.4 -- -- 94
2020-03-05 08:00:00 10.8 11 Noroeste 40 Noroeste 4.4 -- -- 92
2020-03-05 07:00:00 12 26 Noroeste 56 Sudoeste 0 -- -- 86
2020-03-05 06:00:00 16.9 29 Sur 63 Sur 0 -- -- 63
2020-03-05 05:00:00 17 24 Sur 70 Sur 0 -- -- 61
2020-03-05 04:00:00 16.9 28 Sur 61 Sudoeste 0 -- -- 65
2020-03-05 03:00:00 16.9 39 Sudoeste 65 Sudoeste 0 -- -- 65
2020-03-05 02:00:00 17.2 34 Sudoeste 58 Sudoeste 0 -- -- 61
2020-03-05 01:00:00 16.7 13 Sur 32 Sudoeste 0 -- -- 63
2020-03-05 00:00:00 16.3 10 Sur 22 Sur 0 -- -- 63
2020-03-04 23:00:00 14.3 12 Este 22 Este 0 -- -- 73
2020-03-04 22:00:00 12.1 0 Calma 10 Noroeste 0.2 -- -- 89
2020-03-04 21:00:00 12.5 6 Sur 10 Sudeste 0 -- -- 86
2020-03-04 20:00:00 13.3 5 Sudeste 7 Sudeste 0 -- -- 84
2020-03-04 19:00:00 15 4 Norte 10 Norte 0 -- -- 77
2020-03-04 18:00:00 15.9 4 Nordeste 17 Norte 0 -- -- 76
2020-03-04 17:00:00 16.2 10 Norte 24 Norte 0 -- -- 75
2020-03-04 16:00:00 16.9 15 Norte 24 Norte 0 -- -- 74
2020-03-04 15:00:00 18.1 4 Nordeste 10 Norte 0 -- -- 74
2020-03-04 14:00:00 17.8 4 Nordeste 12 Norte 0 -- -- 75
2020-03-04 13:00:00 17.7 6 Norte 10 Norte 0 -- -- 72
2020-03-04 12:00:00 16.3 4 Norte 10 Sudoeste 0 -- -- 83
2020-03-04 11:00:00 13.8 3 Noroeste 7 Noroeste 0 -- -- 91
2020-03-04 10:00:00 12.1 3 Sudoeste 9 Noroeste 0 -- -- 95
2020-03-04 09:00:00 10.7 0 Calma 8 Oeste 0 -- -- 96
2020-03-04 08:00:00 10.4 3 Oeste 11 Noroeste 0 -- -- 97
2020-03-04 07:00:00 10.4 3 Oeste 10 Noroeste 0 -- -- 97
2020-03-04 06:00:00 10.4 4 Noroeste 9 Oeste 0 -- -- 97
2020-03-04 05:00:00 10.2 3 Sur 8 Noroeste 1.4 -- -- 98
2020-03-04 04:00:00 10.1 4 Sudeste 15 Sudeste 3 -- -- 98
2020-03-04 03:00:00 9.9 2 Sur 6 Noroeste 0.6 -- -- 98
2020-03-04 02:00:00 9.7 3 Sudoeste 9 Noroeste 0.2 -- -- 99
2020-03-04 01:00:00 9.7 0 Calma 6 Sudeste 0 -- -- 98
2020-03-04 00:00:00 9.8 6 Noroeste 8 Noroeste 0 -- -- 98
2020-03-03 23:00:00 9.9 2 Sudoeste 5 Sudoeste 0.2 -- -- 97
2020-03-03 22:00:00 10 0 Calma 8 Este 0.6 -- -- 96
2020-03-03 21:00:00 10.1 5 Nordeste 11 Nordeste 0.4 -- -- 96
2020-03-03 20:00:00 11 8 Noroeste 21 Norte 1 -- -- 92
2020-03-03 19:00:00 11.9 8 Norte 39 Noroeste 0 -- -- 87
2020-03-03 18:00:00 12.3 21 Noroeste 46 Noroeste 0 -- -- 81
2020-03-03 17:00:00 12.9 24 Noroeste 59 Noroeste 0 -- -- 77
2020-03-03 16:00:00 13.2 37 Noroeste 72 Noroeste 0 -- -- 74
2020-03-03 15:00:00 13.7 44 Noroeste 91 Noroeste 0 -- -- 76
2020-03-03 14:00:00 15 36 Noroeste 56 Noroeste 0 -- -- 73
2020-03-03 13:00:00 15.5 32 Noroeste 58 Noroeste 0 -- -- 75
2020-03-03 12:00:00 17.4 27 Noroeste 53 Noroeste 0 -- -- 66
2020-03-03 11:00:00 16.7 7 Este 23 Este 0 -- -- 64
2020-03-03 10:00:00 11.8 16 Este 24 Este 0 -- -- 72
2020-03-03 09:00:00 11.1 8 Sur 30 Sudoeste 0 -- -- 70
2020-03-03 08:00:00 9.6 18 Sudoeste 37 Sur 0 -- -- 70
2020-03-03 07:00:00 8.3 21 Sudoeste 42 Sudoeste 0.6 -- -- 74
2020-03-03 06:00:00 7.2 8 Sur 27 Sur 1.2 -- -- 82
2020-03-03 05:00:00 7.5 8 Sur 17 Norte 0 -- -- 76
2020-03-03 04:00:00 7.5 5 Norte 17 Sudeste 0 -- -- 73
2020-03-03 03:00:00 6 3 Este 18 Este 0 -- -- 80
2020-03-03 02:00:00 4.8 7 Noroeste 14 Noroeste 0 -- -- 89
2020-03-03 01:00:00 4.1 2 Oeste 8 Este 0.2 -- -- 92
2020-03-03 00:00:00 4.4 3 Oeste 7 Noroeste 0 -- -- 90
2020-03-02 23:00:00 4.9 4 Noroeste 12 Sudeste 0 -- -- 90
2020-03-02 22:00:00 5.4 5 Sudeste 12 Sudeste 0 -- -- 87
2020-03-02 21:00:00 5.6 9 Sudeste 19 Este 1 -- -- 88
2020-03-02 20:00:00 5.9 4 Sur 48 Noroeste 1.4 -- -- 85
2020-03-02 19:00:00 7.4 10 Oeste 43 Sudoeste 0 -- -- 70
2020-03-02 18:00:00 8.1 22 Oeste 42 Oeste 0 -- -- 71
2020-03-02 17:00:00 8.3 25 Oeste 49 Noroeste 0 -- -- 70
2020-03-02 16:00:00 7.7 22 Noroeste 55 Oeste 1.2 -- -- 74
2020-03-02 15:00:00 5.8 19 Noroeste 63 Oeste 2.6 -- -- 83
2020-03-02 14:00:00 8.9 26 Oeste 68 Oeste 0.2 -- -- 65
2020-03-02 13:00:00 7.2 17 Oeste 36 Oeste 0.4 -- -- 76
2020-03-02 12:00:00 5.9 14 Noroeste 38 Oeste 2.2 -- -- 85
2020-03-02 11:00:00 7.1 7 Oeste 51 Oeste 0.2 -- -- 76
2020-03-02 10:00:00 7.6 7 Noroeste 54 Noroeste 0.4 -- -- 77
2020-03-02 09:00:00 7.9 22 Oeste 50 Noroeste 0.2 -- -- 72
2020-03-02 08:00:00 8 24 Oeste 72 Oeste 0.2 -- -- 74
2020-03-02 07:00:00 7.6 36 Noroeste 71 Noroeste 2.4 -- -- 82
2020-03-02 06:00:00 8.6 28 Noroeste 72 Oeste 2.4 -- -- 86
2020-03-02 05:00:00 9.1 15 Noroeste 57 Oeste 1.4 -- -- 87
2020-03-02 04:00:00 9.6 20 Noroeste 41 Noroeste 6.4 -- -- 89
2020-03-02 03:00:00 10.4 0 Calma 29 Noroeste 0.8 -- -- 85
2020-03-02 02:00:00 13.3 19 Oeste 44 Sudoeste 0 -- -- 66
2020-03-02 01:00:00 14.3 21 Sur 53 Sur 0 -- -- 63
2020-03-02 00:00:00 14.3 30 Sur 66 Sur 0 -- -- 55
2020-03-01 23:00:00 13.8 27 Sur 53 Sudoeste 0 -- -- 59
2020-03-01 22:00:00 13 16 Sur 41 Sudoeste 0 -- -- 60
2020-03-01 21:00:00 10.8 3 Sudeste 10 Sudeste 0 -- -- 79
2020-03-01 20:00:00 11.7 2 Sur 8 Noroeste 0 -- -- 77
2020-03-01 19:00:00 12.8 0 Calma 8 Nordeste 0 -- -- 69
2020-03-01 18:00:00 13.4 0 Calma 13 Nordeste 0 -- -- 63
2020-03-01 17:00:00 13.7 8 Nordeste 23 Norte 0 -- -- 69
2020-03-01 16:00:00 15.1 8 Nordeste 18 Nordeste 0 -- -- 62
2020-03-01 15:00:00 14.5 8 Nordeste 21 Norte 0 -- -- 69
2020-03-01 14:00:00 14.3 12 Norte 24 Norte 0 -- -- 73
2020-03-01 13:00:00 14.3 13 Nordeste 30 Norte 0 -- -- 71
2020-03-01 12:00:00 15.3 9 Noroeste 35 Noroeste 0 -- -- 67
2020-03-01 11:00:00 16.8 6 Sudoeste 29 Sudoeste 0 -- -- 47
2020-03-01 10:00:00 14.6 19 Sudoeste 42 Sudoeste 0 -- -- 50
2020-03-01 09:00:00 12.7 24 Sudoeste 51 Sudoeste 0 -- -- 58
2020-03-01 08:00:00 12.9 26 Sur 69 Sudoeste 0 -- -- 55
2020-03-01 07:00:00 12.1 26 Sudoeste 60 Sudoeste 0 -- -- 62
2020-03-01 06:00:00 12 24 Sur 49 Sudoeste 0 -- -- 60
2020-03-01 05:00:00 12.1 19 Sur 46 Sudoeste 0 -- -- 57
2020-03-01 04:00:00 12.5 30 Sudoeste 48 Sudoeste 0 -- -- 54
2020-03-01 03:00:00 11.8 26 Sudoeste 48 Sudoeste 0 -- -- 62
2020-03-01 02:00:00 9.4 10 Sur 22 Sur 0 -- -- 71
2020-03-01 01:00:00 7.6 3 Sudoeste 6 Sur 0 -- -- 93
2020-03-01 00:00:00 8.4 0 Calma 6 Norte 0 -- -- 90
2020-02-29 23:00:00 9 0 Calma 6 Noroeste 0 -- -- 89
2020-02-29 22:00:00 9.5 2 Norte 5 Noroeste 0 -- -- 88
2020-02-29 21:00:00 10 2 Nordeste 3 Nordeste 0 -- -- 84
2020-02-29 20:00:00 10.2 0 Calma 5 Sudoeste 0 -- -- 82
2020-02-29 19:00:00 10.4 2 Sudoeste 7 Sudeste 0 -- -- 82
2020-02-29 18:00:00 10.4 3 Sur 15 Sur 0 -- -- 81
2020-02-29 17:00:00 10.7 10 Sudeste 23 Noroeste 0 -- -- 80
2020-02-29 16:00:00 10.8 13 Noroeste 35 Noroeste 0 -- -- 76
2020-02-29 15:00:00 12.2 12 Norte 20 Norte 0 -- -- 70
2020-02-29 14:00:00 12.8 5 Nordeste 15 Nordeste 0 -- -- 73
2020-02-29 13:00:00 12.3 6 Nordeste 13 Norte 0 -- -- 78
2020-02-29 12:00:00 12.3 5 Nordeste 20 Noroeste 0 -- -- 78
2020-02-29 11:00:00 13.3 12 Norte 23 Norte 0 -- -- 78
2020-02-29 10:00:00 13.7 15 Oeste 34 Sudoeste 0 -- -- 62
2020-02-29 09:00:00 13 20 Sudoeste 45 Sudoeste 0 -- -- 62
2020-02-29 08:00:00 13.4 21 Sudoeste 61 Sur 0 -- -- 57
2020-02-29 07:00:00 14 30 Sur 55 Sur 0 -- -- 52
2020-02-29 06:00:00 14.4 29 Sur 65 Sur 0 -- -- 48
2020-02-29 05:00:00 15.3 30 Sur 64 Sudeste 0 -- -- 40
2020-02-29 04:00:00 15.3 31 Sur 63 Sudeste 0 -- -- 45
2020-02-29 03:00:00 16.2 28 Sur 57 Sur 0 -- -- 40
2020-02-29 02:00:00 16.3 27 Sur 58 Sur 0 -- -- 41
2020-02-29 01:00:00 17.1 30 Sur 49 Sur 0 -- -- 36
2020-02-29 00:00:00 17.7 21 Sur 43 Sur 0 -- -- 33
2020-02-28 23:00:00 17.1 15 Sur 33 Sur 0 -- -- 35
2020-02-28 22:00:00 17.2 20 Sur 38 Sudoeste 0 -- -- 34
2020-02-28 21:00:00 17.4 13 Sur 35 Sur 0 -- -- 35
2020-02-28 20:00:00 17.8 15 Sur 44 Sur 0 -- -- 35
2020-02-28 19:00:00 18.3 21 Sur 42 Sur 0 -- -- 36
2020-02-28 18:00:00 19.1 22 Sur 46 Sur 0 -- -- 34
2020-02-28 17:00:00 19.3 24 Sur 41 Sur 0 -- -- 30
2020-02-28 16:00:00 18.9 15 Sur 34 Sudeste 0 -- -- 34
2020-02-28 15:00:00 19.6 15 Sudeste 28 Sur 0 -- -- 35
2020-02-28 14:00:00 19.2 7 Sur 23 Sudeste 0 -- -- 40
2020-02-28 13:00:00 17.3 10 Sur 20 Sudeste 0 -- -- 52
2020-02-28 12:00:00 14.5 4 Noroeste 10 Sudeste 0 -- -- 56
2020-02-28 11:00:00 10.6 2 Este 5 Este 0 -- -- 91
2020-02-28 10:00:00 7.2 0 Calma 15 Noroeste 0 -- -- 100
2020-02-28 09:00:00 5.1 6 Noroeste 14 Noroeste 0 -- -- 100
2020-02-28 08:00:00 4.5 2 Sur 5 Noroeste 0 -- -- 99
2020-02-28 07:00:00 4.9 0 Calma 5 Este 0 -- -- 100
2020-02-28 06:00:00 5.5 3 Sudoeste 5 Sudoeste 0 -- -- 99
2020-02-28 05:00:00 6.4 3 Norte 5 Norte 0 -- -- 98
2020-02-28 04:00:00 7.5 0 Calma 6 Noroeste 0 -- -- 97
2020-02-28 03:00:00 7.9 2 Sur 6 Noroeste 0 -- -- 96
2020-02-28 02:00:00 8.5 2 Noroeste 7 Sudeste 0 -- -- 95
2020-02-28 01:00:00 9.3 2 Sur 10 Sudeste 0 -- -- 91
2020-02-28 00:00:00 10.5 5 Sudeste 8 Sudeste 0 -- -- 89